Flight Track Log - Related Links

Times and Time Zones

All times are in EDT time to prevent confusion due to time zone crossing. See the N983CE flight status page for this flight to view local times or setup timezone preferences in your user account.

Time Position Orientation Groundspeed Altitude Reporting Facility
EDT Latitude Longitude Course Direction KTS MPH feet Rate Location/Type
Thu 07:21:09 AM 42.6622 -83.4492 330° Northwest 162 186 2,100  Level Cleveland Center
Thu 07:22:54 AM 42.7317 -83.5031 330° Northwest 288 331 5,000 1,663 Climbing Cleveland Center
Thu 07:23:55 AM 42.7342 -83.4014 88° East 272 313 6,700 2,156 Climbing Cleveland Center
Thu 07:25:02 AM 42.7142 -83.2819 103° East 283 326 9,600 2,646 Climbing Cleveland Center
Thu 07:26:02 AM 42.6850 -83.1847 112° Southeast 319 367 12,300 2,750 Climbing Cleveland Center
Thu 07:27:02 AM 42.6394 -83.0811 121° Southeast 326 375 15,100 2,950 Climbing Cleveland Center
Thu 07:28:02 AM 42.5917 -82.9719 121° Southeast 332 382 18,200 2,850 Climbing Cleveland Center
Thu 07:29:02 AM 42.5419 -82.8572 120° Southeast 344 396 20,800 1,400 Climbing Cleveland Center
Thu 07:30:02 AM 42.4881 -82.7344 121° Southeast 362 417 21,000 100 Climbing Cleveland Center
Thu 07:31:02 AM 42.4342 -82.6058 120° Southeast 377 434 21,000  Level Cleveland Center
Thu 07:32:02 AM 42.3800 -82.4692 118° Southeast 398 458 21,000 750 Level Cleveland Center
Thu 07:33:02 AM 42.3619 -82.3058 98° East 414 476 22,500 1,000 Climbing Cleveland Center
Thu 07:34:02 AM 42.3542 -82.1172 93° East 436 502 23,000 250 Climbing Cleveland Center
Thu 07:35:02 AM 42.3458 -81.9542 94° East 436 502 23,000  Level Cleveland Center
Thu 07:36:02 AM 42.3411 -81.7967 92° East 429 494 23,000  Level Cleveland Center
Thu 07:37:02 AM 42.3325 -81.6364 94° East 424 488 23,000  Level Cleveland Center
Thu 07:38:02 AM 42.3253 -81.4761 93° East 424 488 23,000  Level Cleveland Center
Thu 07:39:02 AM 42.3181 -81.3386 94° East 424 488 23,000  Level Cleveland Center
Thu 07:40:02 AM 42.3106 -81.1811 94° East 424 488 23,000  Level Cleveland Center
Thu 07:41:02 AM 42.3008 -81.0239 95° East 424 488 23,000 -500 Level Cleveland Center
Thu 07:42:02 AM 42.2931 -80.8694 94° East 419 482 22,000 -1,350 Descending Cleveland Center
Thu 07:43:02 AM 42.2872 -80.7150 93° East 419 482 20,300 -1,850 Descending Cleveland Center
Thu 07:44:02 AM 42.2767 -80.5581 95° East 399 459 18,300 -4,650 Descending Cleveland Center
Thu 07:45:02 AM 42.2683 -80.4175 95° East 382 440 11,000 -2,000 Descending Cleveland Center
Thu 07:46:02 AM 42.2619 -80.2772 93° East 376 433 14,300 400 Climbing Cleveland Center
Thu 07:47:02 AM 42.2531 -80.1428 95° East 365 420 11,800 -2,100 Descending Cleveland Center
Thu 07:48:02 AM 42.2442 -80.0167 95° East 351 404 10,100 -1,550 Descending Cleveland Center
Thu 07:49:02 AM 42.2414 -79.9017 92° East 326 375 8,700 -1,500 Descending Cleveland Center
Thu 07:50:02 AM 42.2389 -79.8064 92° East 287 330 7,100 -1,750 Descending Cleveland Center
Thu 07:51:02 AM 42.2339 -79.6942 93° East 277 319 5,200 -1,450 Descending Cleveland Center
Thu 07:52:02 AM 42.2289 -79.5961 94° East 263 303 4,200 -1,000 Descending Cleveland Center
Thu 07:54:00 AM 42.1951 -79.3635 95° East  Level FlightAware Approximate
Thu 08:01:00 AM 42.1500 -79.2500 270° West  Level FlightAware Approximate
Thu 08:02:00 AM 42.1534 -79.2580 270° West  Level Estimated
Thu 08:03:00 AM 42.1500 -79.2500 270° West  Level FlightAware Approximate
Thu 08:04:00 AM 42.1534 -79.2580 270° West  Level Estimated
Thu 08:05:00 AM 42.1500 -79.2500 270° West  Level FlightAware Approximate
Thu 08:06:00 AM 42.1534 -79.2580 270° West  Level Estimated

Login

Don't have an account? Register now (free) for customized features, flight alerts, and more!